createdAt,value
2019-02-07T00:01:06.383Z,48.11
2019-02-07T00:06:14.307Z,47.71
2019-02-07T00:11:23.804Z,48.12
2019-02-07T00:16:30.768Z,47.95
2019-02-07T00:21:38.464Z,47.76
2019-02-07T00:26:46.501Z,48.16
2019-02-07T00:31:52.314Z,47.67
2019-02-07T00:37:00.003Z,47.77
2019-02-07T00:42:06.250Z,47.81
2019-02-07T00:47:12.546Z,48.01
2019-02-07T00:52:19.936Z,47.68
2019-02-07T00:57:25.650Z,47.75
2019-02-07T01:02:31.757Z,47.37
2019-02-07T01:07:39.021Z,47.29
2019-02-07T01:12:45.814Z,47.73
2019-02-07T01:17:53.914Z,47.99
2019-02-07T01:23:01.326Z,47.77
2019-02-07T01:28:07.288Z,47.89
2019-02-07T01:33:13.180Z,47.55
2019-02-07T01:38:19.246Z,47.57
2019-02-07T01:43:25.143Z,47.60
2019-02-07T01:48:32.198Z,46.93
2019-02-07T01:53:37.846Z,46.98
2019-02-07T01:58:45.716Z,47.11
2019-02-07T02:03:52.326Z,47.52
2019-02-07T02:08:58.269Z,47.26
2019-02-07T02:14:05.298Z,47.29
2019-02-07T02:19:11.118Z,46.99
2019-02-07T02:24:17.693Z,47.29
2019-02-07T02:29:23.874Z,47.22
2019-02-07T02:34:30.719Z,47.37
2019-02-07T02:39:37.106Z,47.58
2019-02-07T02:44:43.666Z,47.54
2019-02-07T02:49:49.775Z,47.36
2019-02-07T02:54:55.909Z,47.81
2019-02-07T03:00:01.699Z,47.44
2019-02-07T03:05:27.862Z,46.88
2019-02-07T03:10:38.276Z,47.22
2019-02-07T03:15:50.369Z,46.87
2019-02-07T03:21:03.891Z,47.33
2019-02-07T03:26:15.737Z,46.32
2019-02-07T03:31:23.004Z,46.92
2019-02-07T03:36:36.548Z,46.89
2019-02-07T03:41:49.911Z,47.25
2019-02-07T03:46:57.575Z,47.57
2019-02-07T03:52:05.183Z,47.83
2019-02-07T03:57:17.349Z,47.91
2019-02-07T04:02:25.283Z,47.82
2019-02-07T04:07:42.775Z,47.99
2019-02-07T04:12:52.961Z,47.80
2019-02-07T04:18:09.623Z,47.93
2019-02-07T04:23:25.669Z,47.20
2019-02-07T04:28:38.753Z,47.82
2019-02-07T04:33:48.942Z,47.86
2019-02-07T04:39:12.008Z,48.02
2019-02-07T04:44:29.209Z,47.21
2019-02-07T04:49:44.807Z,47.42
2019-02-07T04:54:52.411Z,47.01
2019-02-07T05:00:02.850Z,47.61
2019-02-07T05:05:20.994Z,47.33
2019-02-07T05:10:46.975Z,46.82
2019-02-07T05:16:13.361Z,47.57
2019-02-07T05:21:25.371Z,47.28
2019-02-07T05:26:37.124Z,47.46
2019-02-07T05:31:47.270Z,47.43
2019-02-07T05:36:55.231Z,47.21
2019-02-07T05:42:05.304Z,46.67
2019-02-07T05:47:29.078Z,46.56
2019-02-07T05:52:39.470Z,46.79
2019-02-07T05:58:03.740Z,46.87
2019-02-07T06:03:12.017Z,46.57
2019-02-07T06:08:38.209Z,46.99
2019-02-07T06:13:48.514Z,47.13
2019-02-07T06:19:09.911Z,46.81
2019-02-07T06:24:31.627Z,46.35
2019-02-07T06:29:42.273Z,46.87
2019-02-07T06:34:58.527Z,46.88
2019-02-07T06:40:08.887Z,46.64
2019-02-07T06:45:19.943Z,47.05
2019-02-07T06:50:28.042Z,46.73
2019-02-07T06:55:38.113Z,46.89
2019-02-07T07:00:46.330Z,46.67
2019-02-07T07:05:56.716Z,46.35
2019-02-07T07:11:10.559Z,46.63
2019-02-07T07:16:21.735Z,46.53
2019-02-07T07:21:38.410Z,46.14
2019-02-07T07:26:50.242Z,46.03
2019-02-07T07:31:58.722Z,46.20
2019-02-07T07:37:21.471Z,45.69
2019-02-07T07:42:29.152Z,45.92
2019-02-07T07:47:53.224Z,46.25
2019-02-07T07:53:00.962Z,46.04
2019-02-07T07:58:24.710Z,45.65
2019-02-07T08:03:41.347Z,45.58
2019-02-07T08:08:53.046Z,45.19
2019-02-07T08:14:13.137Z,45.27
2019-02-07T08:19:21.142Z,45.66
2019-02-07T08:24:31.471Z,45.37
2019-02-07T08:29:55.305Z,46.02
2019-02-07T08:35:21.786Z,45.18
2019-02-07T08:40:38.343Z,45.71
2019-02-07T08:45:50.187Z,45.60
2019-02-07T08:50:58.750Z,45.80
2019-02-07T08:56:14.335Z,46.09
2019-02-07T09:01:39.143Z,45.47
2019-02-07T09:06:49.638Z,45.37
2019-02-07T09:12:01.177Z,45.58
2019-02-07T09:17:14.365Z,45.34
2019-02-07T09:22:23.928Z,44.69
2019-02-07T09:27:49.352Z,44.78
2019-02-07T09:33:06.485Z,44.49
2019-02-07T09:38:29.242Z,44.87
2019-02-07T09:43:39.363Z,44.54
2019-02-07T09:49:05.371Z,44.48
2019-02-07T09:54:12.983Z,43.72
2019-02-07T09:59:28.544Z,43.56
2019-02-07T10:04:36.642Z,43.04
2019-02-07T10:10:00.973Z,43.35
2019-02-07T10:15:25.709Z,43.27
2019-02-07T10:20:33.147Z,42.59
2019-02-07T10:25:41.909Z,42.28
2019-02-07T10:30:59.323Z,41.64
2019-02-07T10:36:09.803Z,40.10
2019-02-07T10:41:20.535Z,38.94
2019-02-07T10:46:28.306Z,38.76
2019-02-07T10:51:46.070Z,38.53
2019-02-07T10:57:04.924Z,38.62
2019-02-07T11:02:23.799Z,38.94
2019-02-07T11:07:31.782Z,38.73
2019-02-07T11:12:52.224Z,38.54
2019-02-07T11:18:03.460Z,38.37
2019-02-07T11:23:14.969Z,37.83
2019-02-07T11:28:34.748Z,37.76
2019-02-07T11:33:45.099Z,38.33
2019-02-07T11:38:52.446Z,37.20
2019-02-07T11:44:16.990Z,36.53
2019-02-07T11:49:33.337Z,35.43
2019-02-07T11:54:41.285Z,35.35
2019-02-07T12:00:07.949Z,35.60
2019-02-07T12:05:33.850Z,35.36
2019-02-07T12:10:59.603Z,35.81
2019-02-07T12:16:20.115Z,35.55
2019-02-07T12:21:33.336Z,34.91
2019-02-07T12:26:47.121Z,34.47
2019-02-07T12:32:03.410Z,34.97
2019-02-07T12:37:17.552Z,35.60
2019-02-07T12:42:30.875Z,35.25
2019-02-07T12:47:47.154Z,36.02
2019-02-07T12:53:04.792Z,35.82
2019-02-07T12:58:21.524Z,35.10
2019-02-07T13:03:29.487Z,35.30
2019-02-07T13:08:41.636Z,35.17
2019-02-07T13:13:59.375Z,35.38
2019-02-07T13:19:13.777Z,35.45
2019-02-07T13:24:27.542Z,35.97
2019-02-07T13:29:53.480Z,36.01
2019-02-07T13:35:04.276Z,35.94
2019-02-07T13:40:25.895Z,35.95
2019-02-07T13:45:42.480Z,36.44
2019-02-07T13:51:05.900Z,37.52
2019-02-07T13:56:13.228Z,38.49
2019-02-07T14:01:22.962Z,38.33
2019-02-07T14:06:37.238Z,38.18
2019-02-07T14:12:04.554Z,39.44
2019-02-07T14:17:19.177Z,41.35
2019-02-07T14:22:29.841Z,43.27
2019-02-07T14:27:47.072Z,43.43
2019-02-07T14:33:13.197Z,43.86
2019-02-07T14:38:22.284Z,44.70
2019-02-07T14:43:30.040Z,44.86
2019-02-07T14:48:35.770Z,45.85
2019-02-07T14:53:42.027Z,45.95
2019-02-07T14:58:49.181Z,46.02
2019-02-07T15:03:55.206Z,46.21
2019-02-07T15:09:03.215Z,45.78
2019-02-07T15:14:10.263Z,45.55
2019-02-07T15:19:15.998Z,45.27
2019-02-07T15:24:22.937Z,45.28
2019-02-07T15:29:28.781Z,44.95
2019-02-07T15:34:34.602Z,45.42
2019-02-07T15:39:41.225Z,46.03
2019-02-07T15:44:47.860Z,45.91
2019-02-07T15:49:54.065Z,45.75
2019-02-07T15:54:59.943Z,46.41
2019-02-07T16:00:16.338Z,46.75
2019-02-07T16:05:23.433Z,46.80
2019-02-07T16:10:29.406Z,46.76
2019-02-07T16:15:36.173Z,47.51
2019-02-07T16:20:48.977Z,46.99
2019-02-07T16:25:50.790Z,46.71
2019-02-07T16:30:56.552Z,46.97
2019-02-07T16:36:02.296Z,46.62
2019-02-07T16:41:10.534Z,47.19
2019-02-07T16:46:15.826Z,47.16
2019-02-07T16:51:22.240Z,46.73
2019-02-07T16:56:28.530Z,48.04
2019-02-07T17:01:34.637Z,48.23
2019-02-07T17:06:40.927Z,48.62
2019-02-07T17:11:48.669Z,48.83
2019-02-07T17:16:54.629Z,48.26
2019-02-07T17:22:03.748Z,48.24
2019-02-07T17:27:13.341Z,48.16
2019-02-07T17:32:20.533Z,48.30
2019-02-07T17:37:27.261Z,48.67
2019-02-07T17:42:33.337Z,48.85
2019-02-07T17:47:39.900Z,48.53
2019-02-07T17:52:46.944Z,48.66
2019-02-07T17:57:53.912Z,48.75
2019-02-07T18:03:02.065Z,48.83
2019-02-07T18:08:09.303Z,49.40
2019-02-07T18:13:16.993Z,49.89
2019-02-07T18:18:23.241Z,50.26
2019-02-07T18:23:28.871Z,50.04
2019-02-07T18:28:34.821Z,50.62
2019-02-07T18:33:42.208Z,51.03
2019-02-07T18:38:49.867Z,51.18
2019-02-07T18:43:56.271Z,51.58
2019-02-07T18:49:02.983Z,51.46
2019-02-07T18:54:09.414Z,51.86
2019-02-07T18:59:16.088Z,52.38
2019-02-07T19:04:21.952Z,53.27
2019-02-07T19:09:28.023Z,53.68
2019-02-07T19:14:35.045Z,54.62
2019-02-07T19:19:41.154Z,54.29
2019-02-07T19:24:48.627Z,55.59
2019-02-07T19:29:55.029Z,55.39
2019-02-07T19:35:01.895Z,55.16
2019-02-07T19:40:10.866Z,55.48
2019-02-07T19:45:21.784Z,55.72
2019-02-07T19:50:28.501Z,54.78
2019-02-07T19:55:34.526Z,55.13
2019-02-07T20:00:40.906Z,56.23
2019-02-07T20:05:46.542Z,55.82
2019-02-07T20:10:57.114Z,56.40
2019-02-07T20:16:05.101Z,57.21
2019-02-07T20:21:11.146Z,57.25
2019-02-07T20:26:17.638Z,57.06
2019-02-07T20:31:23.583Z,57.28
2019-02-07T20:36:31.140Z,57.38
2019-02-07T20:41:37.027Z,56.91
2019-02-07T20:46:45.236Z,57.31
2019-02-07T20:51:52.895Z,57.78
2019-02-07T20:56:59.002Z,57.54
2019-02-07T21:02:05.810Z,57.56
2019-02-07T21:07:14.354Z,57.81
2019-02-07T21:12:20.394Z,57.92
2019-02-07T21:17:27.346Z,58.81
2019-02-07T21:22:34.683Z,58.49
2019-02-07T21:27:40.612Z,57.94
2019-02-07T21:32:49.433Z,57.19
